Live Oak, Texas
Current Conditions -  °F | °C
As of 3:58 PM on Sunday 25 Jan 2015 (Local Time) from KRND Reporting Station
Clear Clear  
Wind Chill: 70°   Ceiling: Unl
Heat Index: 70°   Visibility: 10mi
Dew Point: 32°   Wind: 15mph
Humidity: 25%   Direction: 360°N
Pressure: 30.11"   Gusts: NA
Location:  29.56°N, 98.34°W
Report Text: KRND 252158Z AUTO 36013KT 10SM CLR 21/00 A3011 RMK AO2 SLP195 T02100001 $
Loading
Personal Weather Stations






























Interactive Weather Map New forecast layout! Learn more

10-Day Weather Forecast

Advertisements
Track Severe Weather on mobile